Freshford, Canada
Current Conditions -  °F | °C
As of 2:00 PM on Thursday 20 Nov 2014 (Local Time) from CYQD Reporting Station
Broken Clouds Broken Clouds  
Wind Chill:   Ceiling: 7000
Heat Index: 14°   Visibility: 15mi
Dew Point:   Wind: 8mph
Humidity: 62%   Direction: 160°SSE
Pressure: 29.9"   Gusts: NA
Location:  52.68°N, 101.23°W
Report Text: CYQD 202000Z 16007KT 140V200 15SM FEW060 BKN070 BKN200 M10/M16 A2990 RMK SC1AC6CS1 SC TR PRESFR SLP148
Loading
Personal Weather Stations






























Interactive Weather Map New forecast layout! Learn more

10-Day Weather Forecast

Advertisements
Track Severe Weather on mobile